Time;durP1;ratioP1;P1;durP2;ratioP2;P2;SDS_P1;SDS_P2;PMS_P1;PMS_P2;Temp;Humidity;BMP_temperature;BMP_pressure;BME280_temperature;BME280_humidity;BME280_pressure;Samples;Min_cycle;Max_cycle;Signal;HPM_P1;HPM_P2
2022/11/07 00:01:47;;;;;;;4.68;4.38;;;;;;;9.26;100.00;100551.59;6142820;23;20198;-72
2022/11/07 00:04:14;;;;;;;4.00;3.80;;;;;;;9.31;100.00;100567.94;6180937;23;20774;-72
2022/11/07 00:06:41;;;;;;;4.07;3.88;;;;;;;9.28;100.00;100574.19;6135188;23;20109;-73
2022/11/07 00:09:07;;;;;;;4.10;3.90;;;;;;;9.48;100.00;100620.34;6186216;23;20027;-72
2022/11/07 00:11:33;;;;;;;4.32;4.13;;;;;;;9.03;100.00;100576.28;6151155;23;20486;-72
2022/11/07 00:14:00;;;;;;;4.30;4.10;;;;;;;8.99;100.00;100612.22;6150472;23;20029;-72
2022/11/07 00:16:28;;;;;;;4.00;3.80;;;;;;;8.68;100.00;100579.63;6151784;23;20028;-73
2022/11/07 00:18:54;;;;;;;4.10;3.90;;;;;;;8.90;100.00;100628.34;6178780;23;20123;-72
2022/11/07 00:21:20;;;;;;;4.15;3.95;;;;;;;8.21;100.00;100530.31;6094616;23;20071;-74
2022/11/07 00:23:47;;;;;;;4.43;4.22;;;;;;;8.58;100.00;100594.91;6181084;23;20012;-74
2022/11/07 00:26:14;;;;;;;4.25;4.05;;;;;;;8.65;100.00;100624.22;6140515;23;20079;-73
2022/11/07 00:28:42;;;;;;;4.53;4.32;;;;;;;8.55;100.00;100594.19;6151974;23;20073;-74
2022/11/07 00:31:11;;;;;;;4.07;3.88;;;;;;;8.68;100.00;100616.25;6116650;23;20079;-72
2022/11/07 00:33:37;;;;;;;3.92;3.72;;;;;;;8.23;100.00;100531.06;6179111;23;20032;-71
2022/11/07 00:36:04;;;;;;;4.55;4.35;;;;;;;8.28;100.00;100542.19;6121473;23;20485;-73
2022/11/07 00:38:31;;;;;;;4.20;4.00;;;;;;;8.69;100.00;100597.00;6176272;23;20024;-73
2022/11/07 00:40:59;;;;;;;4.05;3.85;;;;;;;8.83;100.00;100614.69;6114920;23;20017;-73
2022/11/07 00:43:26;;;;;;;3.72;3.63;;;;;;;8.47;100.00;100563.13;6174200;23;20025;-73
2022/11/07 00:45:53;;;;;;;5.53;4.00;;;;;;;8.66;100.00;100607.63;6116213;23;20047;-72
2022/11/07 00:48:19;;;;;;;4.00;3.80;;;;;;;7.88;100.00;100490.84;6178308;23;20094;-72
2022/11/07 00:50:46;;;;;;;4.10;3.90;;;;;;;8.57;100.00;100589.72;6142126;23;20034;-74
2022/11/07 00:53:13;;;;;;;5.20;5.00;;;;;;;8.55;100.00;100604.66;6143468;23;20676;-73
2022/11/07 00:55:40;;;;;;;3.70;3.58;;;;;;;8.11;100.00;100534.25;6176849;23;20016;-72
2022/11/07 00:58:06;;;;;;;3.90;3.70;;;;;;;8.24;100.00;100569.38;6116253;23;20021;-72
2022/11/07 01:00:39;;;;;;;;;;;;;;;8.41;100.00;100592.19;6173839;23;20036;-73
2022/11/07 01:06:00;;;;;;;4.20;4.00;;;;;;;7.76;100.00;100458.28;6175489;23;20089;-73
2022/11/07 01:08:27;;;;;;;4.07;3.88;;;;;;;8.16;100.00;100517.44;6115984;23;20025;-74
2022/11/07 01:10:54;;;;;;;4.95;4.60;;;;;;;8.27;100.00;100521.34;6160835;23;20442;-73
2022/11/07 01:13:21;;;;;;;4.20;4.00;;;;;;;8.61;100.00;100575.59;6122578;23;20482;-72
2022/11/07 01:15:48;;;;;;;4.20;3.90;;;;;;;8.25;100.00;100505.72;6178624;23;20036;-72
2022/11/07 01:18:14;;;;;;;4.00;3.80;;;;;;;8.15;100.00;100486.97;6120018;23;20025;-71
2022/11/07 01:20:40;;;;;;;3.88;3.67;;;;;;;8.09;100.00;100482.03;6176698;23;20497;-72
2022/11/07 01:23:07;;;;;;;4.05;3.85;;;;;;;8.77;100.00;100591.44;6135696;23;20074;-73
2022/11/07 01:25:37;;;;;;;4.05;3.85;;;;;;;8.70;100.00;100597.84;6178942;23;20509;-71
2022/11/07 01:28:05;;;;;;;4.03;3.83;;;;;;;8.32;100.00;100542.91;6133876;23;20400;-72
2022/11/07 01:30:32;;;;;;;4.18;3.97;;;;;;;8.44;100.00;100585.97;6146203;23;20188;-72
2022/11/07 01:32:59;;;;;;;4.10;3.90;;;;;;;7.87;100.00;100510.88;6090248;23;20074;-71
2022/11/07 01:35:25;;;;;;;4.15;3.95;;;;;;;8.22;100.00;100584.28;6177902;23;20085;-73
2022/11/07 01:37:51;;;;;;;4.45;4.18;;;;;;;7.76;100.00;100519.22;6144968;23;20131;-72
2022/11/07 01:40:18;;;;;;;4.00;3.70;;;;;;;7.79;100.00;100537.34;6151779;23;20024;-72
2022/11/07 01:42:44;;;;;;;4.07;3.88;;;;;;;7.78;100.00;100527.81;6127711;23;20074;-72
2022/11/07 01:45:21;;;;;;;4.18;3.97;;;;;;;7.97;100.00;100569.66;6172600;23;20020;-73
2022/11/07 01:47:50;;;;;;;3.97;3.78;;;;;;;7.63;100.00;100514.56;6132119;23;20041;-73
2022/11/07 01:50:17;;;;;;;4.00;3.80;;;;;;;7.63;100.00;100512.81;6146995;23;20037;-72
2022/11/07 01:52:47;;;;;;;4.22;4.03;;;;;;;7.71;100.00;100515.94;6141917;23;20047;-70
2022/11/07 01:55:26;;;;;;;4.07;3.88;;;;;;;7.96;100.00;100538.41;6175849;23;20019;-72
2022/11/07 01:58:04;;;;;;;3.80;3.70;;;;;;;7.54;100.00;100471.44;6135240;23;20039;-72
2022/11/07 02:00:33;;;;;;;4.28;4.07;;;;;;;7.54;100.00;100482.72;6149182;23;20028;-72
2022/11/07 02:03:06;;;;;;;3.78;3.65;;;;;;;7.84;100.00;100534.56;6137381;23;20333;-71
2022/11/07 02:05:59;;;;;;;3.72;3.63;;;;;;;7.41;100.00;100470.25;6175233;23;20044;-72
2022/11/07 02:08:26;;;;;;;;;;;;;;;7.77;100.00;100525.28;6138653;23;20028;-72
2022/11/07 02:10:53;;;;;;;5.00;4.38;;;;;;;7.14;100.00;100427.00;6150583;23;19919;-71
2022/11/07 02:13:24;;;;;;;3.80;3.60;;;;;;;7.69;100.00;100524.75;6108536;23;20033;-72
2022/11/07 02:15:51;;;;;;;3.70;3.60;;;;;;;7.59;100.00;100513.84;6182830;23;20032;-72
2022/11/07 02:18:17;;;;;;;4.63;4.22;;;;;;;7.45;100.00;100511.81;6146931;23;20020;-72
2022/11/07 02:20:45;;;;;;;3.88;3.67;;;;;;;7.30;100.00;100500.28;6187171;23;20509;-72
2022/11/07 02:23:19;;;;;;;3.90;3.70;;;;;;;6.90;100.00;100425.41;6139565;23;20005;-73
2022/11/07 02:25:46;;;;;;;4.25;3.95;;;;;;;7.02;100.00;100461.44;6180568;23;20036;-72
2022/11/07 02:28:13;;;;;;;4.30;4.00;;;;;;;6.95;100.00;100436.50;6140719;23;20479;-72
2022/11/07 02:30:48;;;;;;;3.90;3.70;;;;;;;7.18;100.00;100478.13;6170667;23;20020;-72
2022/11/07 02:33:24;;;;;;;3.70;3.60;;;;;;;7.49;100.00;100531.66;6128629;23;20025;-73
2022/11/07 02:35:52;;;;;;;3.90;3.70;;;;;;;7.28;100.00;100498.66;6186169;23;20276;-73
2022/11/07 02:38:23;;;;;;;3.60;3.50;;;;;;;7.44;100.00;100533.63;6123208;23;20220;-73
2022/11/07 02:40:55;;;;;;;3.80;3.70;;;;;;;7.20;100.00;100498.97;6152933;23;20095;-73
2022/11/07 02:43:26;;;;;;;3.57;3.40;;;;;;;7.41;100.00;100533.75;6142289;23;20029;-73
2022/11/07 02:45:54;;;;;;;3.80;3.60;;;;;;;7.37;100.00;100527.81;6179407;23;20485;-73
2022/11/07 02:48:20;;;;;;;3.70;3.60;;;;;;;7.08;100.00;100489.03;6128637;23;20033;-73
2022/11/07 02:50:47;;;;;;;4.18;3.97;;;;;;;7.23;100.00;100524.09;6175467;23;20028;-72
2022/11/07 02:53:14;;;;;;;4.20;4.00;;;;;;;7.19;100.00;100498.09;6149788;23;20171;-73
2022/11/07 02:55:40;;;;;;;4.25;4.05;;;;;;;7.38;100.00;100555.63;6179891;23;20017;-72
2022/11/07 02:58:07;;;;;;;3.60;3.50;;;;;;;7.10;100.00;100485.44;6157352;23;20027;-71
2022/11/07 03:00:52;;;;;;;3.90;3.70;;;;;;;6.52;100.00;100391.31;6161831;23;20029;-73
2022/11/07 03:03:42;;;;;;;3.90;3.70;;;;;;;7.36;100.00;100540.94;6074714;23;20712;-75
2022/11/07 03:06:12;;;;;;;3.88;3.67;;;;;;;6.75;100.00;100429.47;6131698;23;20067;-75
2022/11/07 03:08:39;;;;;;;4.35;4.05;;;;;;;7.46;100.00;100534.44;6177446;23;20021;-76
2022/11/07 03:11:06;;;;;;;3.85;3.70;;;;;;;7.40;100.00;100529.47;6155364;23;20016;-75
2022/11/07 03:13:33;;;;;;;4.07;3.88;;;;;;;7.34;100.00;100519.28;6178579;23;20028;-75
2022/11/07 03:16:06;;;;;;;4.15;3.95;;;;;;;7.03;100.00;100483.97;6137209;23;20455;-75
2022/11/07 03:18:33;;;;;;;4.00;3.80;;;;;;;7.37;100.00;100529.56;6178907;23;20327;-73
2022/11/07 03:21:00;;;;;;;3.78;3.58;;;;;;;7.48;100.00;100563.94;6119673;23;20080;-76
2022/11/07 03:23:28;;;;;;;3.63;3.53;;;;;;;7.47;100.00;100567.44;6150065;23;20093;-76
2022/11/07 03:25:54;;;;;;;3.80;3.60;;;;;;;7.47;100.00;100554.38;6126593;23;20033;-75
2022/11/07 03:28:21;;;;;;;3.90;3.70;;;;;;;7.48;100.00;100557.88;6149898;23;20037;-75
2022/11/07 03:30:47;;;;;;;3.85;3.70;;;;;;;6.88;100.00;100464.59;6093527;23;20092;-74
2022/11/07 03:33:13;;;;;;;3.60;3.50;;;;;;;7.23;100.00;100517.09;6177280;23;20089;-74
2022/11/07 03:35:41;;;;;;;4.10;3.90;;;;;;;7.52;100.00;100570.72;6096410;23;20373;-75
2022/11/07 03:38:08;;;;;;;3.70;3.60;;;;;;;6.92;100.00;100471.38;6148817;23;20062;-75
2022/11/07 03:40:34;;;;;;;3.58;3.47;;;;;;;7.09;100.00;100503.75;6100989;23;20095;-75
2022/11/07 03:43:01;;;;;;;4.10;3.90;;;;;;;7.17;100.00;100517.34;6149520;23;20032;-75
2022/11/07 03:45:27;;;;;;;3.50;3.40;;;;;;;7.31;100.00;100537.66;6117279;23;20420;-75
2022/11/07 03:47:54;;;;;;;5.63;4.13;;;;;;;6.55;100.00;100419.84;6151408;23;20243;-75
2022/11/07 03:50:21;;;;;;;3.97;3.78;;;;;;;7.42;100.00;100560.69;6112473;23;20050;-74
2022/11/07 03:52:48;;;;;;;4.03;3.83;;;;;;;6.33;100.00;100384.22;6175419;23;20028;-74
2022/11/07 03:55:17;;;;;;;3.80;3.65;;;;;;;7.29;100.00;100547.31;6136325;23;20269;-75
2022/11/07 03:57:44;;;;;;;4.20;3.90;;;;;;;7.35;100.00;100560.13;6175165;23;20019;-75
2022/11/07 04:00:12;;;;;;;4.18;3.97;;;;;;;7.37;100.00;100563.50;6141055;23;20021;-75
2022/11/07 04:02:39;;;;;;;4.05;3.75;;;;;;;7.16;100.00;100537.38;6177288;23;20005;-75
2022/11/07 04:05:07;;;;;;;4.25;3.85;;;;;;;7.33;100.00;100575.84;6117948;23;20029;-75
2022/11/07 04:07:34;;;;;;;4.38;4.18;;;;;;;7.17;100.00;100553.88;6139761;23;20017;-75
2022/11/07 04:10:00;;;;;;;3.70;3.60;;;;;;;7.03;100.00;100545.75;6117187;23;20115;-75
2022/11/07 04:17:59;;;;;;;3.70;3.60;;;;;;;7.34;100.00;100589.75;6175903;23;20032;-74
2022/11/07 04:20:26;;;;;;;3.60;3.50;;;;;;;7.20;100.00;100553.78;6111632;23;20112;-74
2022/11/07 04:22:52;;;;;;;3.90;3.72;;;;;;;7.31;100.00;100572.44;6145950;23;20009;-74
2022/11/07 04:27:41;;;;;;;5.00;3.97;;;;;;;7.02;100.00;100524.03;6177959;23;20079;-75
2022/11/07 04:28:05;;;;;;;6.72;3.80;;;;;;;7.23;100.00;100563.22;6147160;23;20028;-75
2022/11/07 04:30:32;;;;;;;3.85;3.65;;;;;;;7.28;100.00;100566.50;6179861;23;20083;-72
2022/11/07 04:33:00;;;;;;;4.50;3.90;;;;;;;7.19;100.00;100567.72;6088065;23;20010;-72
2022/11/07 04:35:29;;;;;;;4.32;4.03;;;;;;;7.33;100.00;100581.06;6172308;23;20029;-73
2022/11/07 04:37:56;;;;;;;4.13;3.88;;;;;;;7.20;100.00;100574.66;6146915;23;20127;-73
2022/11/07 04:40:23;;;;;;;3.80;3.60;;;;;;;6.32;100.00;100429.44;6139102;23;20511;-72
2022/11/07 04:42:49;;;;;;;4.38;4.07;;;;;;;7.15;100.00;100568.75;6175462;23;20212;-72
2022/11/07 04:45:17;;;;;;;3.90;3.70;;;;;;;7.31;100.00;100592.47;6111742;23;20025;-72
2022/11/07 04:47:43;;;;;;;4.43;4.13;;;;;;;7.23;100.00;100558.84;6171638;23;20193;-71
2022/11/07 04:50:12;;;;;;;3.85;3.65;;;;;;;7.32;100.00;100571.53;6122406;23;20013;-72
2022/11/07 04:52:39;;;;;;;4.07;3.90;;;;;;;7.08;100.00;100526.41;6176800;23;20040;-73
2022/11/07 04:55:07;;;;;;;4.10;3.90;;;;;;;7.26;100.00;100552.69;6119754;23;20435;-74
2022/11/07 04:57:33;;;;;;;3.90;3.70;;;;;;;7.49;100.00;100585.66;6172502;23;20024;-74
2022/11/07 05:00:01;;;;;;;4.30;4.00;;;;;;;7.08;100.00;100523.78;6116318;23;20366;-75
2022/11/07 05:02:27;;;;;;;4.22;3.78;;;;;;;7.38;100.00;100575.66;6177925;23;20016;-75
2022/11/07 05:04:54;;;;;;;4.60;4.32;;;;;;;7.10;100.00;100536.78;6125540;23;20410;-75
2022/11/07 05:07:20;;;;;;;4.20;3.90;;;;;;;7.45;100.00;100582.31;6172619;23;20470;-75
2022/11/07 05:09:47;;;;;;;3.75;3.55;;;;;;;7.18;100.00;100546.00;6118769;23;20104;-75
2022/11/07 05:12:13;;;;;;;3.90;3.70;;;;;;;7.22;100.00;100548.47;6172750;23;20561;-75
2022/11/07 05:14:40;;;;;;;4.13;3.83;;;;;;;7.24;100.00;100541.44;6101796;23;20455;-75
2022/11/07 05:17:06;;;;;;;4.18;3.97;;;;;;;7.32;100.00;100548.03;6153082;23;20031;-74
2022/11/07 05:19:33;;;;;;;4.00;3.80;;;;;;;7.23;100.00;100548.41;6138859;23;20041;-75
2022/11/07 05:24:44;;;;;;;3.90;3.70;;;;;;;4.97;100.00;100148.22;6131479;23;20080;-75
2022/11/07 05:27:17;;;;;;;3.67;3.58;;;;;;;7.72;100.00;100597.78;6176277;23;20017;-73
2022/11/07 05:29:43;;;;;;;5.65;5.05;;;;;;;7.10;100.00;100497.66;6119618;23;20439;-75
2022/11/07 05:32:10;;;;;;;4.20;4.00;;;;;;;7.44;100.00;100551.91;6174072;23;20020;-75
2022/11/07 05:34:36;;;;;;;9.13;4.10;;;;;;;6.54;100.00;100418.16;6149960;23;20336;-74
2022/11/07 05:37:07;;;;;;;3.95;3.65;;;;;;;7.27;100.00;100528.25;6168267;23;20017;-74
2022/11/07 05:39:33;;;;;;;3.85;3.67;;;;;;;7.69;100.00;100598.72;6133950;23;20029;-75
2022/11/07 05:42:00;;;;;;;3.80;3.60;;;;;;;7.40;100.00;100550.34;6171192;23;20095;-75
2022/11/07 05:44:27;;;;;;;4.45;3.88;;;;;;;7.58;100.00;100570.47;6148805;23;20441;-76
2022/11/07 05:46:55;;;;;;;4.45;4.05;;;;;;;7.47;100.00;100536.09;6174154;23;20054;-72
2022/11/07 05:49:23;;;;;;;4.13;3.92;;;;;;;8.01;100.00;100611.34;6101083;23;20036;-73
2022/11/07 05:51:49;;;;;;;3.90;3.60;;;;;;;8.05;100.00;100605.09;6175246;23;20584;-70
2022/11/07 05:54:16;;;;;;;4.05;3.85;;;;;;;7.81;100.00;100554.72;6119378;23;20415;-71
2022/11/07 05:56:42;;;;;;;4.35;3.90;;;;;;;7.85;100.00;100548.47;6176481;23;20163;-72
2022/11/07 05:59:10;;;;;;;4.07;3.88;;;;;;;7.94;100.00;100572.44;6135244;23;20013;-71
2022/11/07 06:01:36;;;;;;;4.30;4.00;;;;;;;8.27;100.00;100618.91;6120585;23;20013;-70
2022/11/07 06:04:04;;;;;;;3.92;3.75;;;;;;;8.29;100.00;100614.47;6149288;23;20061;-72
2022/11/07 06:06:30;;;;;;;3.90;3.70;;;;;;;8.23;100.00;100599.06;6146227;23;20522;-72
2022/11/07 06:08:57;;;;;;;4.10;3.90;;;;;;;7.42;100.00;100464.09;6150873;23;20028;-72
2022/11/07 06:11:24;;;;;;;4.13;3.85;;;;;;;8.07;100.00;100562.28;6116927;23;20033;-71
2022/11/07 06:13:52;;;;;;;3.97;3.78;;;;;;;8.33;100.00;100616.03;6162032;23;20114;-72
2022/11/07 06:16:19;;;;;;;8.95;4.60;;;;;;;7.56;100.00;100478.28;6138954;23;20498;-71
2022/11/07 06:18:45;;;;;;;3.83;3.65;;;;;;;8.49;100.00;100626.69;6148952;23;20008;-72
2022/11/07 06:21:12;;;;;;;3.90;3.70;;;;;;;8.04;100.00;100557.19;6140238;23;20013;-71
2022/11/07 06:23:39;;;;;;;11.32;4.20;;;;;;;8.44;100.00;100615.59;6169495;23;20020;-71
2022/11/07 06:26:05;;;;;;;4.43;4.22;;;;;;;8.71;100.00;100637.03;6098543;23;20586;-70
2022/11/07 06:28:32;;;;;;;4.00;3.80;;;;;;;8.34;100.00;100570.66;6172265;23;20021;-70
2022/11/07 06:30:59;;;;;;;4.75;4.55;;;;;;;8.50;100.00;100575.22;6110203;23;20123;-70
2022/11/07 06:33:26;;;;;;;4.00;3.80;;;;;;;8.99;100.00;100651.47;6147733;23;20042;-72
2022/11/07 06:35:52;;;;;;;9.32;4.20;;;;;;;9.04;100.00;100656.50;6114462;23;20160;-70
2022/11/07 06:38:18;;;;;;;5.22;4.55;;;;;;;9.06;100.00;100667.72;6170698;23;20703;-73
2022/11/07 06:40:45;;;;;;;3.67;3.55;;;;;;;8.98;100.00;100650.63;6085158;23;20025;-76
2022/11/07 06:43:14;;;;;;;5.00;4.60;;;;;;;8.25;100.00;100529.25;6166314;23;20012;-75
2022/11/07 06:45:41;;;;;;;4.10;3.90;;;;;;;8.97;100.00;100654.16;6126089;23;20040;-76
2022/11/07 06:48:08;;;;;;;4.10;3.90;;;;;;;9.16;100.00;100688.19;6161088;23;20037;-75
2022/11/07 06:50:35;;;;;;;4.10;3.90;;;;;;;8.79;100.00;100634.91;6129305;23;20435;-76
2022/11/07 06:53:11;;;;;;;4.32;4.13;;;;;;;8.79;100.00;100639.31;6166839;23;20032;-76
2022/11/07 06:55:39;;;;;;;4.38;4.07;;;;;;;8.87;100.00;100634.56;6137165;23;20032;-78
2022/11/07 06:58:06;;;;;;;4.32;4.13;;;;;;;9.25;100.00;100696.53;6148142;23;20033;-76
2022/11/07 07:00:34;;;;;;;4.10;3.90;;;;;;;9.26;100.00;100701.72;6128508;23;20276;-76
2022/11/07 07:03:00;;;;;;;4.25;4.05;;;;;;;9.05;100.00;100653.81;6171136;23;20235;-77
2022/11/07 07:05:27;;;;;;;7.43;4.32;;;;;;;8.15;100.00;100520.13;6088959;23;20413;-78
2022/11/07 07:07:54;;;;;;;4.53;4.32;;;;;;;8.84;100.00;100632.09;6169137;23;20032;-77
2022/11/07 07:10:23;;;;;;;4.10;3.90;;;;;;;8.96;100.00;100647.25;6130750;23;20702;-75
2022/11/07 07:12:50;;;;;;;4.50;4.20;;;;;;;9.32;100.00;100706.66;6142991;23;20026;-76
2022/11/07 07:15:17;;;;;;;4.18;3.97;;;;;;;9.01;100.00;100662.72;6168863;23;20024;-75
2022/11/07 07:17:43;;;;;;;4.18;3.97;;;;;;;9.41;100.00;100712.41;6147189;23;20029;-76
2022/11/07 07:20:10;;;;;;;4.60;4.28;;;;;;;9.07;100.00;100651.13;6138910;23;20444;-76
2022/11/07 07:22:36;;;;;;;4.50;4.20;;;;;;;9.54;100.00;100703.88;6172660;23;20028;-78
2022/11/07 07:25:03;;;;;;;4.10;3.90;;;;;;;9.31;100.00;100664.84;6134667;23;20020;-76
2022/11/07 07:27:29;;;;;;;4.88;4.47;;;;;;;9.79;100.00;100700.91;6170996;23;20024;-77
2022/11/07 07:29:55;;;;;;;4.53;4.22;;;;;;;9.90;100.00;100675.94;6147458;23;20029;-75
2022/11/07 07:32:24;;;;;;;4.70;4.40;;;;;;;10.42;100.00;100746.78;6146915;23;20077;-74
2022/11/07 07:34:51;;;;;;;5.90;5.40;;;;;;;10.67;100.00;100741.13;6135800;23;20032;-76
2022/11/07 07:37:17;;;;;;;4.65;4.28;;;;;;;10.47;100.00;100696.72;6147295;23;20027;-75
2022/11/07 07:39:44;;;;;;;4.75;4.53;;;;;;;10.67;100.00;100719.28;6101144;23;20645;-75
2022/11/07 07:42:10;;;;;;;5.57;5.07;;;;;;;11.06;100.00;100757.50;6174034;23;20017;-74
2022/11/07 07:44:36;;;;;;;5.07;4.80;;;;;;;10.66;100.00;100696.59;6137172;23;20582;-75
2022/11/07 07:47:03;;;;;;;4.68;4.47;;;;;;;10.17;100.00;100600.28;6174667;23;20032;-75
2022/11/07 07:49:36;;;;;;;4.50;4.30;;;;;;;11.27;100.00;100771.28;6112901;23;20380;-75
2022/11/07 07:52:02;;;;;;;5.00;4.70;;;;;;;10.95;100.00;100723.94;6172179;23;20419;-76
2022/11/07 07:54:36;;;;;;;14.48;13.55;;;;;;;11.28;100.00;100788.72;6037567;23;20252;-76
2022/11/07 07:57:04;;;;;;;7.72;4.55;;;;;;;10.94;100.00;100725.72;6136122;23;20029;-78
2022/11/07 07:59:31;;;;;;;4.40;4.20;;;;;;;11.32;100.00;100775.31;6121612;23;20010;-74
2022/11/07 08:01:57;;;;;;;5.03;4.63;;;;;;;11.41;100.00;100767.91;6147284;23;20477;-75
2022/11/07 08:04:24;;;;;;;6.82;4.05;;;;;;;11.30;100.00;100752.69;6121510;23;20084;-74
2022/11/07 08:06:50;;;;;;;4.40;4.20;;;;;;;11.65;100.00;100799.88;6175675;23;20019;-75
2022/11/07 08:09:17;;;;;;;4.97;4.63;;;;;;;11.31;100.00;100730.75;6103029;23;20028;-74
2022/11/07 08:11:43;;;;;;;4.90;4.47;;;;;;;11.24;100.00;100717.09;6151951;23;20012;-75
2022/11/07 08:14:10;;;;;;;5.75;5.30;;;;;;;10.79;100.00;100650.41;6100283;23;20028;-74
2022/11/07 08:16:37;;;;;;;4.43;4.22;;;;;;;11.26;100.00;100732.78;6152232;23;20407;-76
2022/11/07 08:19:03;;;;;;;6.15;4.22;;;;;;;11.46;100.00;100776.34;6125396;23;20025;-76
2022/11/07 08:21:29;;;;;;;4.20;4.00;;;;;;;11.26;100.00;100733.63;6180182;23;20016;-76
2022/11/07 08:23:56;;;;;;;6.13;4.30;;;;;;;11.15;100.00;100715.81;6100757;23;20031;-75
2022/11/07 08:26:22;;;;;;;5.53;4.90;;;;;;;11.14;100.00;100714.13;6163393;23;20029;-77
2022/11/07 08:28:49;;;;;;;9.52;4.40;;;;;;;11.55;100.00;100786.38;6141777;23;20096;-74
2022/11/07 08:31:15;;;;;;;5.05;4.75;;;;;;;11.26;100.00;100764.31;6168368;23;20084;-72
2022/11/07 08:33:41;;;;;;;4.82;4.53;;;;;;;11.58;100.00;100801.97;6136123;23;20611;-71
2022/11/07 08:36:08;;;;;;;5.53;4.80;;;;;;;11.64;100.00;100809.50;6163943;23;20117;-72
2022/11/07 08:38:35;;;;;;;5.75;4.63;;;;;;;11.71;100.00;100813.50;6139171;23;20041;-72
2022/11/07 08:41:03;;;;;;;9.75;4.95;;;;;;;11.66;100.00;100826.06;6144930;23;20016;-72
2022/11/07 08:43:29;;;;;;;4.97;4.65;;;;;;;11.40;100.00;100761.78;6113821;23;20090;-71
2022/11/07 08:45:56;;;;;;;5.00;4.60;;;;;;;11.79;100.00;100831.50;6119007;23;20061;-73
2022/11/07 08:48:22;;;;;;;4.85;4.43;;;;;;;11.20;100.00;100730.50;6149618;23;20043;-72
2022/11/07 08:50:54;;;;;;;4.45;4.25;;;;;;;11.88;100.00;100830.97;6124668;23;20013;-73
2022/11/07 08:53:21;;;;;;;4.30;4.10;;;;;;;11.91;100.00;100832.66;6145053;23;20254;-73
2022/11/07 08:55:47;;;;;;;6.53;4.70;;;;;;;11.45;100.00;100743.97;6182168;23;20024;-71
2022/11/07 08:58:14;;;;;;;5.60;4.28;;;;;;;11.87;100.00;100821.41;6091944;23;20492;-73
2022/11/07 09:00:41;;;;;;;7.38;4.82;;;;;;;11.94;100.00;100830.66;6168012;23;20036;-73
2022/11/07 09:03:10;;;;;;;4.80;4.50;;;;;;;11.87;100.00;100816.16;6111148;23;20378;-76
2022/11/07 09:05:57;;;;;;;12.45;4.88;;;;;;;11.61;100.00;100770.28;6164840;23;19997;-76
2022/11/07 09:08:23;;;;;;;4.65;4.45;;;;;;;12.08;100.00;100843.03;6096912;23;20083;-75
2022/11/07 09:10:52;;;;;;;7.22;4.50;;;;;;;11.98;100.00;100816.41;6136354;23;20061;-75
2022/11/07 09:13:19;;;;;;;4.47;4.28;;;;;;;11.89;100.00;100788.00;6141366;23;20035;-77
2022/11/07 09:15:46;;;;;;;4.45;4.20;;;;;;;11.75;100.00;100769.50;6169403;23;20055;-76
2022/11/07 09:18:17;;;;;;;4.85;4.65;;;;;;;12.22;100.00;100839.63;6136665;23;20398;-77
2022/11/07 09:20:44;;;;;;;4.72;4.53;;;;;;;12.24;100.00;100853.56;6148425;23;20475;-75
2022/11/07 09:23:10;;;;;;;4.50;4.30;;;;;;;12.17;100.00;100858.31;6136652;23;20092;-74
2022/11/07 09:25:36;;;;;;;8.25;4.80;;;;;;;11.95;100.00;100821.03;6144194;23;20129;-74
2022/11/07 09:28:03;;;;;;;5.88;4.43;;;;;;;11.69;100.00;100783.84;6137338;23;20009;-77
2022/11/07 09:30:30;;;;;;;5.18;4.88;;;;;;;12.04;100.00;100848.56;6168958;23;20541;-75
2022/11/07 09:32:57;;;;;;;4.88;4.60;;;;;;;11.36;100.00;100747.09;6106845;23;20113;-76
2022/11/07 09:35:24;;;;;;;4.70;4.50;;;;;;;11.95;100.00;100842.91;6171804;23;20439;-76
2022/11/07 09:37:50;;;;;;;4.47;4.28;;;;;;;11.92;100.00;100837.78;6117732;23;20025;-77
2022/11/07 09:40:27;;;;;;;4.50;4.30;;;;;;;11.87;100.00;100829.28;6105213;23;20067;-75
2022/11/07 09:43:12;;;;;;;6.03;4.82;;;;;;;11.55;100.00;100781.97;6137368;23;20028;-76
2022/11/07 09:46:14;;;;;;;4.68;4.40;;;;;;;11.85;100.00;100820.66;6166332;23;20033;-77
2022/11/07 09:48:45;;;;;;;4.53;4.32;;;;;;;11.75;100.00;100814.19;6102757;23;20584;-75
2022/11/07 09:51:26;;;;;;;4.50;4.30;;;;;;;11.91;100.00;100830.84;6148626;23;20048;-76
2022/11/07 09:53:58;;;;;;;4.53;4.32;;;;;;;11.50;100.00;100778.72;6135046;23;20033;-74
2022/11/07 09:56:28;;;;;;;4.63;4.43;;;;;;;11.81;100.00;100824.38;6149088;23;20018;-75
2022/11/07 09:59:00;;;;;;;4.95;4.70;;;;;;;11.53;100.00;100783.84;6146835;23;20025;-76
2022/11/07 10:01:30;;;;;;;4.80;4.50;;;;;;;11.81;100.00;100834.91;6169515;23;20028;-72
2022/11/07 10:03:58;;;;;;;4.80;4.47;;;;;;;11.72;100.00;100814.34;6143439;23;20232;-72
2022/11/07 10:06:49;;;;;;;4.80;4.60;;;;;;;12.07;100.00;100837.91;6127940;23;20017;-73
2022/11/07 10:09:41;;;;;;;5.03;4.63;;;;;;;12.16;100.00;100840.81;6171442;23;20110;-72
2022/11/07 10:12:26;;;;;;;4.97;4.78;;;;;;;12.00;100.00;100808.44;6113940;23;20046;-72
2022/11/07 10:15:18;;;;;;;5.03;4.47;;;;;;;12.32;100.00;100850.50;6167386;23;20184;-72
2022/11/07 10:17:55;;;;;;;4.70;4.50;;;;;;;12.14;100.00;100829.53;6115398;23;20542;-72
2022/11/07 10:20:21;;;;;;;5.60;4.90;;;;;;;12.38;100.00;100863.31;6164548;23;20384;-70
2022/11/07 10:23:28;;;;;;;6.63;6.10;;;;;;;12.09;100.00;100813.19;6109149;23;20247;-70
2022/11/07 10:26:14;;;;;;;5.00;4.70;;;;;;;12.33;100.00;100863.56;6132802;23;20074;-72
2022/11/07 10:28:47;;;;;;;5.07;4.65;;;;;;;12.56;100.00;100870.13;6135349;23;20029;-70
2022/11/07 10:31:14;;;;;;;5.93;5.53;;;;;;;12.66;100.00;100873.09;6145513;23;20059;-71
2022/11/07 10:33:58;;;;;;;7.72;5.95;;;;;;;12.50;100.00;100853.84;6148968;23;20063;-72
2022/11/07 10:36:28;;;;;;;5.68;5.20;;;;;;;12.73;100.00;100887.59;6091351;23;20033;-70
2022/11/07 10:38:54;;;;;;;13.55;6.05;;;;;;;12.72;100.00;100885.06;6179185;23;20032;-77
2022/11/07 10:41:27;;;;;;;5.60;5.10;;;;;;;12.87;100.00;100894.72;6144560;23;20029;-75
2022/11/07 10:43:58;;;;;;;6.10;5.60;;;;;;;13.05;100.00;100897.16;6178117;23;20102;-74
2022/11/07 10:46:37;;;;;;;5.65;5.25;;;;;;;13.03;100.00;100872.69;6118536;23;20017;-74
2022/11/07 10:49:14;;;;;;;5.60;5.20;;;;;;;12.93;100.00;100835.56;6177461;23;20089;-74
2022/11/07 10:51:41;;;;;;;7.25;4.75;;;;;;;13.41;100.00;100878.34;6125434;23;20037;-74
2022/11/07 10:54:39;;;;;;;5.88;5.10;;;;;;;13.80;100.00;100903.19;6176016;23;20027;-75
2022/11/07 10:57:08;;;;;;;6.40;5.00;;;;;;;13.88;100.00;100908.81;6107591;23;20028;-76
2022/11/07 10:59:56;;;;;;;8.13;4.88;;;;;;;13.76;100.00;100881.41;6176085;23;20024;-75
2022/11/07 11:02:24;;;;;;;6.60;5.32;;;;;;;13.82;100.00;100919.75;6141929;23;20025;-75
2022/11/07 11:04:54;;;;;;;6.15;5.75;;;;;;;13.84;100.00;100909.97;6178053;23;20001;-75
2022/11/07 11:07:24;;;;;;;5.05;4.65;;;;;;;13.86;100.00;100910.72;6148333;23;20216;-76
2022/11/07 11:09:56;;;;;;;5.30;5.00;;;;;;;13.92;100.00;100910.31;6129754;23;20467;-75
2022/11/07 11:12:32;;;;;;;5.50;5.05;;;;;;;14.10;100.00;100916.22;6118037;23;20033;-75
2022/11/07 11:15:19;;;;;;;6.75;4.93;;;;;;;14.30;100.00;100919.41;6143829;23;20337;-76
2022/11/07 11:17:46;;;;;;;5.25;4.75;;;;;;;14.21;100.00;100886.50;6175261;23;20115;-75
2022/11/07 11:20:41;;;;;;;6.68;5.05;;;;;;;14.60;100.00;100924.53;6122964;23;20030;-75
2022/11/07 11:23:19;;;;;;;6.90;4.90;;;;;;;14.68;100.00;100924.03;6143662;23;20092;-75
2022/11/07 11:25:48;;;;;;;11.52;5.00;;;;;;;14.67;99.14;100917.91;6147732;23;20067;-75
2022/11/07 11:28:27;;;;;;;5.32;5.13;;;;;;;14.66;98.20;100910.91;6146529;23;20033;-74
2022/11/07 11:30:58;;;;;;;5.43;5.03;;;;;;;14.79;96.61;100912.72;6149415;23;20029;-75
2022/11/07 11:33:35;;;;;;;4.88;4.55;;;;;;;14.43;94.49;100827.88;6153093;23;20035;-74
2022/11/07 11:36:10;;;;;;;6.07;5.28;;;;;;;14.91;93.34;100882.84;6136370;23;20102;-74
2022/11/07 11:38:37;;;;;;;5.20;4.90;;;;;;;14.88;92.12;100877.78;6148540;23;20025;-76
2022/11/07 11:41:16;;;;;;;4.70;4.50;;;;;;;14.89;90.99;100869.75;6122116;23;20089;-74
2022/11/07 11:43:57;;;;;;;5.20;4.88;;;;;;;14.80;90.08;100880.94;6177087;23;20349;-74